RYR51LL EIDW-LFBO
Flight info
| Callsign | RYR51LL |
|---|---|
| Flight time | 1h 45m |
| Altitude | 39000 |
| Route | PESIT2J PESIT DCT BAKUR DCT GUBJE DCT GISOK DCT TACQI DCT MANIG DCT KORER UM616 TERPO/N0414F330 UM616 TUPAR DCT CNA DCT UVELI DCT SECHE |
| Aircraft | B738/M-SDE2E3FGHIRWXY/LB1 |
Departure
| Time | 2026-05-07 13:07 |
|---|---|
| Airport | Dublin Airport (EIDW) |
Arrival
| Time | 2026-05-07 14:53 |
|---|---|
| Airport | Toulouse-Blagnac Airport (LFBO) |
| Time | Latitude | Longitude | Altitude | Speed | Heading |
|---|---|---|---|---|---|
| 2026-05-07 12:06 | 53.43131 | -6.25153 | 219 ft | 0 kts | 185° |
| 2026-05-07 12:54 | 53.43132 | -6.25153 | 210 ft | 1 kts | 185° |
| 2026-05-07 12:55 | 53.43148 | -6.25150 | 219 ft | 3 kts | 191° |
| 2026-05-07 12:55 | 53.43168 | -6.25141 | 212 ft | 3 kts | 202° |
| 2026-05-07 12:55 | 53.43185 | -6.25126 | 213 ft | 3 kts | 220° |
| 2026-05-07 12:55 | 53.43198 | -6.25103 | 211 ft | 3 kts | 248° |
| 2026-05-07 12:56 | 53.43202 | -6.25080 | 213 ft | 1 kts | 274° |
| 2026-05-07 12:56 | 53.43202 | -6.25078 | 213 ft | 0 kts | 275° |
| 2026-05-07 12:59 | 53.43205 | -6.25142 | 211 ft | 10 kts | 275° |
| 2026-05-07 12:59 | 53.43209 | -6.25287 | 210 ft | 13 kts | 261° |
| 2026-05-07 12:59 | 53.43170 | -6.25397 | 216 ft | 11 kts | 200° |
| 2026-05-07 12:59 | 53.43098 | -6.25358 | 216 ft | 11 kts | 157° |
| 2026-05-07 13:00 | 53.43029 | -6.25308 | 216 ft | 11 kts | 156° |
| 2026-05-07 13:00 | 53.42962 | -6.25259 | 214 ft | 10 kts | 155° |
| 2026-05-07 13:00 | 53.42898 | -6.25210 | 213 ft | 10 kts | 156° |
| 2026-05-07 13:00 | 53.42834 | -6.25190 | 213 ft | 10 kts | 207° |
| 2026-05-07 13:01 | 53.42784 | -6.25272 | 218 ft | 11 kts | 226° |
| 2026-05-07 13:01 | 53.42724 | -6.25374 | 213 ft | 14 kts | 225° |
| 2026-05-07 13:01 | 53.42650 | -6.25500 | 210 ft | 17 kts | 225° |
| 2026-05-07 13:01 | 53.42560 | -6.25652 | 210 ft | 20 kts | 226° |
| 2026-05-07 13:02 | 53.42461 | -6.25823 | 210 ft | 20 kts | 224° |
| 2026-05-07 13:02 | 53.42365 | -6.25983 | 210 ft | 19 kts | 225° |
| 2026-05-07 13:02 | 53.42303 | -6.26092 | 215 ft | 19 kts | 232° |
| 2026-05-07 13:02 | 53.42266 | -6.26297 | 210 ft | 18 kts | 273° |
| 2026-05-07 13:03 | 53.42284 | -6.26612 | 210 ft | 23 kts | 275° |
| 2026-05-07 13:03 | 53.42294 | -6.26801 | 210 ft | 25 kts | 275° |
| 2026-05-07 13:03 | 53.42314 | -6.27178 | 216 ft | 23 kts | 275° |
| 2026-05-07 13:03 | 53.42329 | -6.27443 | 210 ft | 23 kts | 275° |
| 2026-05-07 13:04 | 53.42339 | -6.27618 | 217 ft | 22 kts | 275° |
| 2026-05-07 13:04 | 53.42353 | -6.27871 | 217 ft | 21 kts | 275° |
| 2026-05-07 13:04 | 53.42365 | -6.28096 | 214 ft | 19 kts | 275° |
| 2026-05-07 13:04 | 53.42368 | -6.28272 | 215 ft | 13 kts | 246° |
| 2026-05-07 13:05 | 53.42310 | -6.28326 | 210 ft | 8 kts | 175° |
| 2026-05-07 13:05 | 53.42263 | -6.28277 | 211 ft | 8 kts | 141° |
| 2026-05-07 13:05 | 53.42215 | -6.28211 | 217 ft | 11 kts | 141° |
| 2026-05-07 13:05 | 53.42193 | -6.28123 | 211 ft | 0 kts | 95° |
| 2026-05-07 13:06 | 53.42193 | -6.28122 | 211 ft | 0 kts | 95° |
| 2026-05-07 13:07 | 53.42190 | -6.28067 | 215 ft | 25 kts | 95° |
| 2026-05-07 13:07 | 53.42147 | -6.27299 | 212 ft | 105 kts | 95° |
| 2026-05-07 13:07 | 53.42066 | -6.25725 | 365 ft | 153 kts | 98° |
| 2026-05-07 13:07 | 53.41974 | -6.23952 | 1155 ft | 157 kts | 102° |
| 2026-05-07 13:08 | 53.41852 | -6.21988 | 1761 ft | 179 kts | 100° |
| 2026-05-07 13:08 | 53.41726 | -6.19820 | 2453 ft | 202 kts | 99° |
| 2026-05-07 13:08 | 53.41590 | -6.17371 | 3001 ft | 220 kts | 98° |
| 2026-05-07 13:08 | 53.41446 | -6.14778 | 3692 ft | 230 kts | 99° |
| 2026-05-07 13:09 | 53.41287 | -6.11909 | 4001 ft | 264 kts | 99° |
| 2026-05-07 13:09 | 53.41114 | -6.08790 | 4879 ft | 271 kts | 97° |
| 2026-05-07 13:09 | 53.40943 | -6.05644 | 5908 ft | 273 kts | 97° |
| 2026-05-07 13:09 | 53.40482 | -6.02557 | 6753 ft | 275 kts | 121° |
| 2026-05-07 13:10 | 53.39267 | -6.00164 | 7741 ft | 268 kts | 148° |
| 2026-05-07 13:10 | 53.37605 | -5.98829 | 8564 ft | 267 kts | 168° |
| 2026-05-07 13:10 | 53.35783 | -5.98248 | 9221 ft | 268 kts | 173° |
| 2026-05-07 13:10 | 53.33923 | -5.97814 | 10113 ft | 271 kts | 174° |
| 2026-05-07 13:11 | 53.31993 | -5.97391 | 10598 ft | 292 kts | 174° |
| 2026-05-07 13:11 | 53.29890 | -5.96928 | 10810 ft | 319 kts | 174° |
| 2026-05-07 13:11 | 53.27638 | -5.96420 | 11365 ft | 331 kts | 174° |
| 2026-05-07 13:11 | 53.25338 | -5.95887 | 12205 ft | 335 kts | 173° |
| 2026-05-07 13:12 | 53.23015 | -5.95340 | 13040 ft | 340 kts | 173° |
| 2026-05-07 13:12 | 53.20678 | -5.94784 | 13880 ft | 343 kts | 173° |
| 2026-05-07 13:12 | 53.18295 | -5.94215 | 14588 ft | 348 kts | 173° |
| 2026-05-07 13:12 | 53.15877 | -5.93635 | 15316 ft | 353 kts | 174° |
| 2026-05-07 13:13 | 53.13468 | -5.93057 | 16047 ft | 357 kts | 174° |
| 2026-05-07 13:13 | 53.10999 | -5.92465 | 16791 ft | 361 kts | 174° |
| 2026-05-07 13:13 | 53.08489 | -5.91863 | 17461 ft | 367 kts | 174° |
| 2026-05-07 13:13 | 53.05941 | -5.91252 | 18161 ft | 371 kts | 174° |
| 2026-05-07 13:14 | 53.03372 | -5.90637 | 18809 ft | 375 kts | 174° |
| 2026-05-07 13:14 | 53.00780 | -5.90017 | 19478 ft | 377 kts | 174° |
| 2026-05-07 13:14 | 52.98176 | -5.89394 | 20123 ft | 380 kts | 174° |
| 2026-05-07 13:14 | 52.95552 | -5.88768 | 20749 ft | 383 kts | 173° |
| 2026-05-07 13:15 | 52.92897 | -5.88135 | 21362 ft | 386 kts | 173° |
| 2026-05-07 13:15 | 52.90224 | -5.87499 | 21975 ft | 390 kts | 173° |
| 2026-05-07 13:15 | 52.87529 | -5.86859 | 22581 ft | 393 kts | 173° |
| 2026-05-07 13:15 | 52.84814 | -5.86214 | 23115 ft | 397 kts | 173° |
| 2026-05-07 13:16 | 52.82061 | -5.85562 | 23610 ft | 402 kts | 173° |
| 2026-05-07 13:16 | 52.79285 | -5.84904 | 24105 ft | 404 kts | 173° |
| 2026-05-07 13:16 | 52.76498 | -5.84245 | 24622 ft | 405 kts | 173° |
| 2026-05-07 13:16 | 52.73699 | -5.83583 | 25119 ft | 407 kts | 173° |
| 2026-05-07 13:17 | 52.70887 | -5.82920 | 25581 ft | 410 kts | 173° |
| 2026-05-07 13:17 | 52.68060 | -5.82254 | 26037 ft | 412 kts | 173° |
| 2026-05-07 13:17 | 52.65207 | -5.81582 | 26496 ft | 414 kts | 173° |
| 2026-05-07 13:17 | 52.62346 | -5.80910 | 26936 ft | 417 kts | 173° |
| 2026-05-07 13:18 | 52.59457 | -5.80232 | 27280 ft | 421 kts | 173° |
| 2026-05-07 13:18 | 52.56546 | -5.79550 | 27671 ft | 424 kts | 173° |
| 2026-05-07 13:18 | 52.53619 | -5.78865 | 28121 ft | 426 kts | 173° |
| 2026-05-07 13:18 | 52.50682 | -5.78178 | 28551 ft | 427 kts | 172° |
| 2026-05-07 13:19 | 52.47732 | -5.77489 | 28941 ft | 430 kts | 172° |
| 2026-05-07 13:19 | 52.44764 | -5.76797 | 29309 ft | 432 kts | 172° |
| 2026-05-07 13:19 | 52.41776 | -5.76102 | 29677 ft | 434 kts | 172° |
| 2026-05-07 13:19 | 52.38794 | -5.75262 | 30028 ft | 437 kts | 167° |
| 2026-05-07 13:20 | 52.35857 | -5.73891 | 30264 ft | 441 kts | 163° |
| 2026-05-07 13:20 | 52.32959 | -5.72187 | 30494 ft | 444 kts | 158° |
| 2026-05-07 13:20 | 52.30125 | -5.70164 | 30878 ft | 444 kts | 156° |
| 2026-05-07 13:20 | 52.27335 | -5.68065 | 31357 ft | 441 kts | 156° |
| 2026-05-07 13:21 | 52.24563 | -5.65956 | 31824 ft | 439 kts | 156° |
| 2026-05-07 13:21 | 52.21795 | -5.63867 | 32235 ft | 438 kts | 156° |
| 2026-05-07 13:21 | 52.19026 | -5.61801 | 32594 ft | 438 kts | 156° |
| 2026-05-07 13:21 | 52.16256 | -5.59759 | 32978 ft | 437 kts | 156° |
| 2026-05-07 13:22 | 52.13523 | -5.57760 | 33328 ft | 437 kts | 157° |
| 2026-05-07 13:22 | 52.10738 | -5.55733 | 33538 ft | 440 kts | 157° |
| 2026-05-07 13:22 | 52.07947 | -5.53709 | 33896 ft | 439 kts | 157° |
| 2026-05-07 13:22 | 52.05165 | -5.51694 | 34306 ft | 436 kts | 157° |
| 2026-05-07 13:23 | 52.02391 | -5.49687 | 34585 ft | 437 kts | 157° |
| 2026-05-07 13:23 | 51.99612 | -5.47680 | 34785 ft | 439 kts | 157° |
| 2026-05-07 13:23 | 51.96816 | -5.45662 | 35011 ft | 440 kts | 157° |
| 2026-05-07 13:23 | 51.94030 | -5.43654 | 35295 ft | 439 kts | 157° |
| 2026-05-07 13:24 | 51.91237 | -5.41644 | 35560 ft | 440 kts | 158° |
| 2026-05-07 13:24 | 51.88436 | -5.39630 | 35748 ft | 442 kts | 158° |
| 2026-05-07 13:24 | 51.85624 | -5.37611 | 35976 ft | 442 kts | 158° |
| 2026-05-07 13:24 | 51.82809 | -5.35592 | 36253 ft | 442 kts | 158° |
| 2026-05-07 13:25 | 51.79998 | -5.33579 | 36510 ft | 442 kts | 158° |
| 2026-05-07 13:25 | 51.77185 | -5.31568 | 36735 ft | 443 kts | 158° |
| 2026-05-07 13:25 | 51.74362 | -5.29552 | 36959 ft | 444 kts | 158° |
| 2026-05-07 13:25 | 51.71539 | -5.27539 | 37211 ft | 444 kts | 158° |
| 2026-05-07 13:26 | 51.68717 | -5.25529 | 37440 ft | 444 kts | 158° |
| 2026-05-07 13:26 | 51.65888 | -5.23517 | 37625 ft | 445 kts | 158° |
| 2026-05-07 13:26 | 51.63081 | -5.21376 | 37828 ft | 447 kts | 151° |
| 2026-05-07 13:26 | 51.60468 | -5.18645 | 38070 ft | 448 kts | 147° |
| 2026-05-07 13:27 | 51.57914 | -5.15775 | 38308 ft | 448 kts | 146° |
| 2026-05-07 13:27 | 51.55368 | -5.12874 | 38493 ft | 449 kts | 146° |
| 2026-05-07 13:27 | 51.52814 | -5.09971 | 38690 ft | 450 kts | 147° |
| 2026-05-07 13:27 | 51.50254 | -5.07086 | 38858 ft | 449 kts | 147° |
| 2026-05-07 13:28 | 51.47688 | -5.04223 | 39008 ft | 450 kts | 147° |
| 2026-05-07 13:28 | 51.45103 | -5.01360 | 39005 ft | 453 kts | 147° |
| 2026-05-07 13:28 | 51.39918 | -4.95656 | 39016 ft | 451 kts | 147° |
| 2026-05-07 13:29 | 51.34756 | -4.90005 | 39019 ft | 448 kts | 147° |
| 2026-05-07 13:29 | 51.29624 | -4.84402 | 39022 ft | 445 kts | 147° |
| 2026-05-07 13:30 | 51.24517 | -4.78839 | 39023 ft | 444 kts | 147° |
| 2026-05-07 13:30 | 51.19421 | -4.73305 | 39021 ft | 443 kts | 147° |
| 2026-05-07 13:31 | 51.14319 | -4.67778 | 39028 ft | 443 kts | 147° |
| 2026-05-07 13:31 | 51.09211 | -4.62259 | 39026 ft | 445 kts | 147° |
| 2026-05-07 13:32 | 51.04080 | -4.56731 | 39026 ft | 446 kts | 147° |
| 2026-05-07 13:32 | 50.98967 | -4.51237 | 39029 ft | 448 kts | 148° |
| 2026-05-07 13:33 | 50.93795 | -4.45693 | 39027 ft | 449 kts | 148° |
| 2026-05-07 13:33 | 50.88607 | -4.40149 | 39027 ft | 451 kts | 148° |
| 2026-05-07 13:34 | 50.80790 | -4.31823 | 39023 ft | 452 kts | 148° |
| 2026-05-07 13:35 | 50.75570 | -4.26282 | 39017 ft | 452 kts | 148° |
| 2026-05-07 13:35 | 50.70350 | -4.20756 | 39022 ft | 452 kts | 148° |
| 2026-05-07 13:36 | 50.65133 | -4.15248 | 39020 ft | 451 kts | 148° |
| 2026-05-07 13:36 | 50.59921 | -4.09760 | 39022 ft | 450 kts | 148° |
| 2026-05-07 13:37 | 50.54720 | -4.04300 | 39022 ft | 449 kts | 148° |
| 2026-05-07 13:37 | 50.49530 | -3.98864 | 39021 ft | 448 kts | 148° |
| 2026-05-07 13:38 | 50.44347 | -3.93451 | 39026 ft | 447 kts | 148° |
| 2026-05-07 13:38 | 50.39176 | -3.88066 | 39020 ft | 446 kts | 148° |
| 2026-05-07 13:39 | 50.34009 | -3.82699 | 39021 ft | 445 kts | 148° |
| 2026-05-07 13:39 | 50.28844 | -3.77347 | 39027 ft | 445 kts | 148° |
| 2026-05-07 13:40 | 50.23680 | -3.72012 | 39025 ft | 445 kts | 148° |
| 2026-05-07 13:40 | 50.18508 | -3.66681 | 39025 ft | 446 kts | 148° |
| 2026-05-07 13:41 | 50.13329 | -3.61357 | 39026 ft | 446 kts | 148° |
| 2026-05-07 13:41 | 50.08145 | -3.56042 | 39025 ft | 446 kts | 148° |
| 2026-05-07 13:42 | 50.02946 | -3.50726 | 39026 ft | 447 kts | 148° |
| 2026-05-07 13:42 | 49.97738 | -3.45415 | 39029 ft | 448 kts | 148° |
| 2026-05-07 13:43 | 49.92518 | -3.40103 | 39028 ft | 449 kts | 148° |
| 2026-05-07 13:43 | 49.87285 | -3.34793 | 39025 ft | 450 kts | 149° |
| 2026-05-07 13:44 | 49.82082 | -3.29527 | 39020 ft | 450 kts | 149° |
| 2026-05-07 13:44 | 49.76553 | -3.25107 | 39022 ft | 446 kts | 164° |
| 2026-05-07 13:45 | 49.70559 | -3.22720 | 39021 ft | 446 kts | 164° |
| 2026-05-07 13:45 | 49.64802 | -3.19057 | 39014 ft | 448 kts | 158° |
| 2026-05-07 13:46 | 49.59116 | -3.15132 | 39023 ft | 448 kts | 158° |
| 2026-05-07 13:46 | 49.53416 | -3.11258 | 39010 ft | 448 kts | 158° |
| 2026-05-07 13:47 | 49.47706 | -3.07445 | 39019 ft | 448 kts | 159° |
| 2026-05-07 13:47 | 49.41983 | -3.03654 | 39019 ft | 448 kts | 159° |
| 2026-05-07 13:48 | 49.36261 | -2.99877 | 39017 ft | 448 kts | 159° |
| 2026-05-07 13:48 | 49.30540 | -2.96109 | 39014 ft | 447 kts | 159° |
| 2026-05-07 13:49 | 49.24822 | -2.92351 | 39005 ft | 447 kts | 159° |
| 2026-05-07 13:49 | 49.20069 | -2.89234 | 39009 ft | 447 kts | 159° |
| 2026-05-07 13:50 | 49.14349 | -2.85492 | 39014 ft | 447 kts | 159° |
| 2026-05-07 13:50 | 49.07662 | -2.81128 | 39015 ft | 447 kts | 159° |
| 2026-05-07 13:51 | 49.02906 | -2.78033 | 39002 ft | 447 kts | 159° |
| 2026-05-07 13:51 | 48.97186 | -2.74319 | 39014 ft | 447 kts | 159° |
| 2026-05-07 13:52 | 48.91466 | -2.70614 | 39005 ft | 447 kts | 159° |
| 2026-05-07 13:52 | 48.85742 | -2.66916 | 39004 ft | 447 kts | 159° |
| 2026-05-07 13:53 | 48.80014 | -2.63225 | 39006 ft | 447 kts | 159° |
| 2026-05-07 13:53 | 48.74288 | -2.59544 | 38999 ft | 447 kts | 159° |
| 2026-05-07 13:54 | 48.68560 | -2.55870 | 39006 ft | 447 kts | 159° |
| 2026-05-07 13:54 | 48.62832 | -2.52206 | 39010 ft | 447 kts | 159° |
| 2026-05-07 13:55 | 48.57095 | -2.48545 | 39006 ft | 448 kts | 159° |
| 2026-05-07 13:55 | 48.51351 | -2.44889 | 38998 ft | 448 kts | 159° |
| 2026-05-07 13:56 | 48.45612 | -2.41245 | 39005 ft | 448 kts | 159° |
| 2026-05-07 13:56 | 48.39864 | -2.37604 | 38995 ft | 448 kts | 160° |
| 2026-05-07 13:57 | 48.34118 | -2.33973 | 39014 ft | 448 kts | 160° |
| 2026-05-07 13:57 | 48.28364 | -2.30347 | 39004 ft | 448 kts | 160° |
| 2026-05-07 13:58 | 48.22623 | -2.26737 | 39005 ft | 448 kts | 160° |
| 2026-05-07 13:58 | 48.16915 | -2.23156 | 39003 ft | 447 kts | 160° |
| 2026-05-07 13:59 | 48.11178 | -2.19567 | 39009 ft | 447 kts | 160° |
| 2026-05-07 13:59 | 48.05435 | -2.15982 | 39005 ft | 447 kts | 160° |
| 2026-05-07 14:00 | 47.99699 | -2.12410 | 39009 ft | 447 kts | 160° |
| 2026-05-07 14:00 | 47.93967 | -2.08848 | 39004 ft | 446 kts | 160° |
| 2026-05-07 14:01 | 47.88237 | -2.05296 | 39010 ft | 446 kts | 159° |
| 2026-05-07 14:01 | 47.82685 | -2.01139 | 39016 ft | 448 kts | 154° |
| 2026-05-07 14:02 | 47.77227 | -1.96661 | 38992 ft | 448 kts | 154° |
| 2026-05-07 14:02 | 47.71773 | -1.92217 | 39006 ft | 447 kts | 154° |
| 2026-05-07 14:03 | 47.66296 | -1.87830 | 39007 ft | 447 kts | 154° |
| 2026-05-07 14:03 | 47.60810 | -1.83478 | 38987 ft | 447 kts | 155° |
| 2026-05-07 14:04 | 47.55312 | -1.79134 | 38990 ft | 447 kts | 155° |
| 2026-05-07 14:04 | 47.49830 | -1.74810 | 38981 ft | 447 kts | 155° |
| 2026-05-07 14:05 | 47.44341 | -1.70491 | 38982 ft | 447 kts | 155° |
| 2026-05-07 14:05 | 47.38854 | -1.66183 | 38989 ft | 447 kts | 155° |
| 2026-05-07 14:06 | 47.33369 | -1.61887 | 38989 ft | 446 kts | 155° |
| 2026-05-07 14:06 | 47.27886 | -1.57602 | 38992 ft | 446 kts | 155° |
| 2026-05-07 14:07 | 47.22399 | -1.53325 | 38996 ft | 446 kts | 155° |
| 2026-05-07 14:07 | 47.16910 | -1.49055 | 38989 ft | 446 kts | 155° |
| 2026-05-07 14:08 | 47.11451 | -1.44820 | 38992 ft | 447 kts | 155° |
| 2026-05-07 14:08 | 47.05923 | -1.40540 | 38989 ft | 447 kts | 155° |
| 2026-05-07 14:09 | 47.00455 | -1.36317 | 38992 ft | 447 kts | 155° |
| 2026-05-07 14:09 | 46.94953 | -1.32078 | 38984 ft | 447 kts | 155° |
| 2026-05-07 14:10 | 46.89445 | -1.27844 | 38995 ft | 447 kts | 155° |
| 2026-05-07 14:10 | 46.83943 | -1.23624 | 38995 ft | 447 kts | 155° |
| 2026-05-07 14:11 | 46.78434 | -1.19409 | 38989 ft | 447 kts | 155° |
| 2026-05-07 14:11 | 46.72929 | -1.15207 | 38996 ft | 447 kts | 155° |
| 2026-05-07 14:12 | 46.67423 | -1.11013 | 38996 ft | 447 kts | 155° |
| 2026-05-07 14:12 | 46.61914 | -1.06828 | 38999 ft | 447 kts | 155° |
| 2026-05-07 14:13 | 46.56397 | -1.02646 | 38978 ft | 447 kts | 155° |
| 2026-05-07 14:13 | 46.50894 | -0.98484 | 38990 ft | 447 kts | 155° |
| 2026-05-07 14:14 | 46.45380 | -0.94322 | 38991 ft | 447 kts | 155° |
| 2026-05-07 14:14 | 46.39858 | -0.90166 | 38978 ft | 447 kts | 155° |
| 2026-05-07 14:15 | 46.34334 | -0.86016 | 38975 ft | 447 kts | 156° |
| 2026-05-07 14:15 | 46.28807 | -0.81875 | 38977 ft | 447 kts | 156° |
| 2026-05-07 14:16 | 46.23279 | -0.77741 | 38964 ft | 447 kts | 156° |
| 2026-05-07 14:16 | 46.17752 | -0.73618 | 38975 ft | 447 kts | 156° |
| 2026-05-07 14:17 | 46.12225 | -0.69505 | 38972 ft | 447 kts | 156° |
| 2026-05-07 14:17 | 46.06697 | -0.65400 | 38973 ft | 447 kts | 156° |
| 2026-05-07 14:18 | 46.01166 | -0.61302 | 38976 ft | 447 kts | 156° |
| 2026-05-07 14:18 | 45.95633 | -0.57211 | 38968 ft | 447 kts | 156° |
| 2026-05-07 14:19 | 45.90098 | -0.53129 | 38973 ft | 447 kts | 156° |
| 2026-05-07 14:19 | 45.84572 | -0.49063 | 38973 ft | 447 kts | 156° |
| 2026-05-07 14:20 | 45.79041 | -0.45001 | 38980 ft | 446 kts | 156° |
| 2026-05-07 14:20 | 45.73517 | -0.40954 | 38977 ft | 446 kts | 156° |
| 2026-05-07 14:21 | 45.67993 | -0.36916 | 38968 ft | 446 kts | 156° |
| 2026-05-07 14:21 | 45.62469 | -0.32887 | 38967 ft | 445 kts | 156° |
| 2026-05-07 14:22 | 45.56989 | -0.28899 | 38952 ft | 445 kts | 156° |
| 2026-05-07 14:22 | 45.51470 | -0.24892 | 38963 ft | 445 kts | 156° |
| 2026-05-07 14:23 | 45.45957 | -0.20898 | 38977 ft | 444 kts | 156° |
| 2026-05-07 14:23 | 45.40452 | -0.16918 | 38977 ft | 444 kts | 156° |
| 2026-05-07 14:24 | 45.34938 | -0.12940 | 38973 ft | 444 kts | 157° |
| 2026-05-07 14:24 | 45.29432 | -0.08978 | 38976 ft | 444 kts | 157° |
| 2026-05-07 14:25 | 45.23936 | -0.05030 | 38974 ft | 443 kts | 157° |
| 2026-05-07 14:25 | 45.18404 | -0.01068 | 38503 ft | 450 kts | 157° |
| 2026-05-07 14:25 | 45.15616 | 0.00926 | 37942 ft | 447 kts | 157° |
| 2026-05-07 14:26 | 45.12850 | 0.02905 | 37373 ft | 445 kts | 157° |
| 2026-05-07 14:26 | 45.10091 | 0.04876 | 36774 ft | 443 kts | 157° |
| 2026-05-07 14:26 | 45.07340 | 0.06838 | 36182 ft | 442 kts | 157° |
| 2026-05-07 14:26 | 45.04600 | 0.08790 | 35561 ft | 442 kts | 157° |
| 2026-05-07 14:27 | 45.01853 | 0.10744 | 34909 ft | 442 kts | 157° |
| 2026-05-07 14:27 | 44.99102 | 0.12698 | 34232 ft | 443 kts | 156° |
| 2026-05-07 14:27 | 44.96356 | 0.14648 | 33643 ft | 440 kts | 157° |
| 2026-05-07 14:27 | 44.93631 | 0.16582 | 33117 ft | 436 kts | 157° |
| 2026-05-07 14:28 | 44.90941 | 0.18490 | 32633 ft | 431 kts | 157° |
| 2026-05-07 14:28 | 44.88276 | 0.20378 | 32155 ft | 426 kts | 157° |
| 2026-05-07 14:28 | 44.85639 | 0.22243 | 31695 ft | 422 kts | 157° |
| 2026-05-07 14:28 | 44.83029 | 0.24087 | 31222 ft | 418 kts | 157° |
| 2026-05-07 14:29 | 44.80443 | 0.25911 | 30781 ft | 414 kts | 157° |
| 2026-05-07 14:29 | 44.77884 | 0.27717 | 30327 ft | 410 kts | 157° |
| 2026-05-07 14:29 | 44.75391 | 0.29495 | 30072 ft | 402 kts | 157° |
| 2026-05-07 14:29 | 44.72936 | 0.31259 | 29733 ft | 395 kts | 157° |
| 2026-05-07 14:30 | 44.70479 | 0.33023 | 29472 ft | 400 kts | 157° |
| 2026-05-07 14:30 | 44.67995 | 0.34800 | 29201 ft | 404 kts | 156° |
| 2026-05-07 14:30 | 44.65490 | 0.36591 | 28918 ft | 404 kts | 156° |
| 2026-05-07 14:30 | 44.62988 | 0.38380 | 28619 ft | 401 kts | 157° |
| 2026-05-07 14:31 | 44.60508 | 0.40152 | 28343 ft | 399 kts | 156° |
| 2026-05-07 14:31 | 44.58038 | 0.41914 | 28069 ft | 397 kts | 156° |
| 2026-05-07 14:31 | 44.55582 | 0.43664 | 27796 ft | 396 kts | 156° |
| 2026-05-07 14:31 | 44.53124 | 0.45413 | 27531 ft | 394 kts | 156° |
| 2026-05-07 14:32 | 44.50696 | 0.47139 | 27134 ft | 390 kts | 156° |
| 2026-05-07 14:32 | 44.48293 | 0.48847 | 26690 ft | 385 kts | 156° |
| 2026-05-07 14:32 | 44.45909 | 0.50539 | 26244 ft | 382 kts | 156° |
| 2026-05-07 14:32 | 44.43546 | 0.52213 | 25810 ft | 379 kts | 156° |
| 2026-05-07 14:33 | 44.41210 | 0.53867 | 25364 ft | 377 kts | 156° |
| 2026-05-07 14:33 | 44.38872 | 0.55521 | 24936 ft | 374 kts | 156° |
| 2026-05-07 14:33 | 44.36565 | 0.57151 | 24516 ft | 372 kts | 156° |
| 2026-05-07 14:33 | 44.34263 | 0.58777 | 24097 ft | 370 kts | 156° |
| 2026-05-07 14:34 | 44.31968 | 0.60395 | 23669 ft | 368 kts | 156° |
| 2026-05-07 14:34 | 44.29689 | 0.62001 | 23174 ft | 366 kts | 156° |
| 2026-05-07 14:34 | 44.28160 | 0.63079 | 22851 ft | 365 kts | 156° |
| 2026-05-07 14:34 | 44.25896 | 0.64673 | 22396 ft | 362 kts | 156° |
| 2026-05-07 14:35 | 44.23655 | 0.66249 | 21976 ft | 359 kts | 156° |
| 2026-05-07 14:35 | 44.20719 | 0.68313 | 21427 ft | 355 kts | 156° |
| 2026-05-07 14:35 | 44.18517 | 0.69859 | 21000 ft | 353 kts | 156° |
| 2026-05-07 14:35 | 44.17042 | 0.70893 | 20732 ft | 351 kts | 156° |
| 2026-05-07 14:36 | 44.14867 | 0.72417 | 20314 ft | 349 kts | 156° |
| 2026-05-07 14:36 | 44.12702 | 0.73934 | 19915 ft | 347 kts | 156° |
| 2026-05-07 14:36 | 44.10552 | 0.75438 | 19513 ft | 345 kts | 156° |
| 2026-05-07 14:36 | 44.08409 | 0.76936 | 19123 ft | 344 kts | 156° |
| 2026-05-07 14:37 | 44.06267 | 0.78432 | 18744 ft | 345 kts | 156° |
| 2026-05-07 14:37 | 44.01963 | 0.81432 | 17842 ft | 346 kts | 155° |
| 2026-05-07 14:37 | 43.99823 | 0.82926 | 17411 ft | 344 kts | 155° |
| 2026-05-07 14:38 | 43.97693 | 0.84410 | 17006 ft | 341 kts | 155° |
| 2026-05-07 14:38 | 43.95577 | 0.85884 | 16611 ft | 339 kts | 155° |
| 2026-05-07 14:38 | 43.93478 | 0.87343 | 16210 ft | 337 kts | 155° |
| 2026-05-07 14:38 | 43.91383 | 0.88799 | 15821 ft | 335 kts | 155° |
| 2026-05-07 14:39 | 43.89432 | 0.90482 | 15427 ft | 335 kts | 146° |
| 2026-05-07 14:39 | 43.87554 | 0.92382 | 15041 ft | 333 kts | 146° |
| 2026-05-07 14:39 | 43.85655 | 0.94277 | 14650 ft | 332 kts | 146° |
| 2026-05-07 14:39 | 43.83805 | 0.96112 | 14210 ft | 332 kts | 146° |
| 2026-05-07 14:40 | 43.81919 | 0.97972 | 13602 ft | 332 kts | 146° |
| 2026-05-07 14:40 | 43.80037 | 0.99828 | 12782 ft | 332 kts | 146° |
| 2026-05-07 14:40 | 43.78158 | 1.01678 | 12019 ft | 331 kts | 146° |
| 2026-05-07 14:40 | 43.76281 | 1.03526 | 11262 ft | 331 kts | 146° |
| 2026-05-07 14:41 | 43.74418 | 1.05357 | 10649 ft | 326 kts | 146° |
| 2026-05-07 14:41 | 43.72681 | 1.07062 | 10357 ft | 317 kts | 146° |
| 2026-05-07 14:41 | 43.70909 | 1.08800 | 10151 ft | 309 kts | 146° |
| 2026-05-07 14:41 | 43.69183 | 1.10496 | 10010 ft | 300 kts | 147° |
| 2026-05-07 14:42 | 43.67494 | 1.12160 | 9716 ft | 297 kts | 147° |
| 2026-05-07 14:42 | 43.65823 | 1.13805 | 9402 ft | 294 kts | 146° |
| 2026-05-07 14:42 | 43.64160 | 1.15436 | 9079 ft | 292 kts | 147° |
| 2026-05-07 14:42 | 43.62513 | 1.17044 | 8803 ft | 288 kts | 146° |
| 2026-05-07 14:43 | 43.60880 | 1.18629 | 8485 ft | 286 kts | 147° |
| 2026-05-07 14:43 | 43.59257 | 1.20203 | 8190 ft | 284 kts | 146° |
| 2026-05-07 14:43 | 43.57652 | 1.21752 | 7873 ft | 278 kts | 146° |
| 2026-05-07 14:43 | 43.56089 | 1.23251 | 7567 ft | 269 kts | 146° |
| 2026-05-07 14:44 | 43.54572 | 1.24701 | 7296 ft | 262 kts | 146° |
| 2026-05-07 14:44 | 43.53088 | 1.26112 | 7014 ft | 260 kts | 146° |
| 2026-05-07 14:44 | 43.51592 | 1.27530 | 6725 ft | 261 kts | 143° |
| 2026-05-07 14:44 | 43.50398 | 1.29266 | 6457 ft | 260 kts | 126° |
| 2026-05-07 14:45 | 43.49320 | 1.31257 | 6176 ft | 259 kts | 126° |
| 2026-05-07 14:45 | 43.48232 | 1.33236 | 5904 ft | 259 kts | 127° |
| 2026-05-07 14:45 | 43.47153 | 1.35192 | 5614 ft | 253 kts | 127° |
| 2026-05-07 14:45 | 43.46120 | 1.37057 | 5520 ft | 236 kts | 127° |
| 2026-05-07 14:46 | 43.45154 | 1.38781 | 5410 ft | 220 kts | 127° |
| 2026-05-07 14:46 | 43.44244 | 1.40409 | 5335 ft | 208 kts | 126° |
| 2026-05-07 14:46 | 43.43386 | 1.41924 | 5253 ft | 197 kts | 127° |
| 2026-05-07 14:46 | 43.42721 | 1.43540 | 5161 ft | 192 kts | 99° |
| 2026-05-07 14:47 | 43.42870 | 1.45309 | 4890 ft | 187 kts | 61° |
| 2026-05-07 14:47 | 43.43593 | 1.46774 | 4628 ft | 184 kts | 53° |
| 2026-05-07 14:47 | 43.44343 | 1.48172 | 4393 ft | 179 kts | 53° |
| 2026-05-07 14:47 | 43.45072 | 1.49523 | 4209 ft | 173 kts | 54° |
| 2026-05-07 14:48 | 43.45792 | 1.50851 | 4024 ft | 173 kts | 51° |
| 2026-05-07 14:48 | 43.46763 | 1.51659 | 4023 ft | 163 kts | 3° |
| 2026-05-07 14:48 | 43.47869 | 1.51207 | 3920 ft | 176 kts | 336° |
| 2026-05-07 14:48 | 43.48967 | 1.50372 | 3672 ft | 182 kts | 333° |
| 2026-05-07 14:49 | 43.50064 | 1.49462 | 3412 ft | 185 kts | 329° |
| 2026-05-07 14:49 | 43.51112 | 1.48443 | 3168 ft | 183 kts | 325° |
| 2026-05-07 14:49 | 43.52125 | 1.47395 | 2930 ft | 181 kts | 324° |
| 2026-05-07 14:49 | 43.53129 | 1.46347 | 2700 ft | 181 kts | 326° |
| 2026-05-07 14:50 | 43.54129 | 1.45307 | 2447 ft | 180 kts | 324° |
| 2026-05-07 14:50 | 43.55128 | 1.44263 | 2192 ft | 181 kts | 324° |
| 2026-05-07 14:50 | 43.56129 | 1.43219 | 1961 ft | 179 kts | 326° |
| 2026-05-07 14:50 | 43.57099 | 1.42211 | 1745 ft | 171 kts | 325° |
| 2026-05-07 14:51 | 43.58025 | 1.41242 | 1535 ft | 162 kts | 326° |
| 2026-05-07 14:51 | 43.58894 | 1.40338 | 1302 ft | 155 kts | 324° |
| 2026-05-07 14:51 | 43.59743 | 1.39453 | 1049 ft | 146 kts | 324° |
| 2026-05-07 14:51 | 43.60524 | 1.38635 | 878 ft | 143 kts | 327° |
| 2026-05-07 14:52 | 43.61329 | 1.37800 | 692 ft | 145 kts | 326° |
| 2026-05-07 14:52 | 43.62121 | 1.36976 | 492 ft | 139 kts | 325° |
| 2026-05-07 14:52 | 43.62813 | 1.36257 | 488 ft | 105 kts | 323° |
| 2026-05-07 14:52 | 43.63240 | 1.35815 | 490 ft | 54 kts | 323° |
| 2026-05-07 14:53 | 43.63450 | 1.35596 | 493 ft | 20 kts | 323° |
| 2026-05-07 14:53 | 43.63544 | 1.35500 | 493 ft | 11 kts | 331° |
| 2026-05-07 14:53 | 43.63603 | 1.35545 | 493 ft | 10 kts | 51° |
| 2026-05-07 14:53 | 43.63647 | 1.35623 | 490 ft | 10 kts | 52° |
| 2026-05-07 14:54 | 43.63695 | 1.35711 | 490 ft | 13 kts | 52° |
| 2026-05-07 14:54 | 43.63751 | 1.35813 | 483 ft | 13 kts | 52° |
| 2026-05-07 14:54 | 43.63803 | 1.35906 | 490 ft | 10 kts | 52° |
| 2026-05-07 14:54 | 43.63807 | 1.35995 | 489 ft | 10 kts | 126° |
| 2026-05-07 14:55 | 43.63752 | 1.36060 | 490 ft | 12 kts | 143° |
| 2026-05-07 14:55 | 43.63670 | 1.36144 | 493 ft | 18 kts | 143° |
| 2026-05-07 14:55 | 43.63557 | 1.36260 | 490 ft | 22 kts | 143° |
| 2026-05-07 14:55 | 43.63449 | 1.36374 | 489 ft | 17 kts | 142° |
| 2026-05-07 14:56 | 43.63355 | 1.36469 | 491 ft | 17 kts | 144° |
| 2026-05-07 14:56 | 43.63267 | 1.36558 | 488 ft | 14 kts | 139° |
| 2026-05-07 14:56 | 43.63263 | 1.36651 | 488 ft | 10 kts | 56° |
| 2026-05-07 14:56 | 43.63295 | 1.36734 | 486 ft | 10 kts | 56° |
| 2026-05-07 14:57 | 43.63334 | 1.36807 | 490 ft | 8 kts | 53° |
| 2026-05-07 14:57 | 43.63351 | 1.36865 | 487 ft | 6 kts | 92° |
| 2026-05-07 14:57 | 43.63330 | 1.36918 | 486 ft | 6 kts | 129° |
| 2026-05-07 14:57 | 43.63307 | 1.36956 | 493 ft | 3 kts | 130° |
| 2026-05-07 14:58 | 43.63306 | 1.36958 | 493 ft | 0 kts | 130° |